createdAt,value
2022-12-31T00:02:01.334Z,102200.77
2022-12-31T00:04:51.770Z,102202.83
2022-12-31T00:10:31.429Z,102215.64
2022-12-31T00:13:21.858Z,102217.80
2022-12-31T00:16:15.398Z,102218.35
2022-12-31T00:19:07.147Z,102214.14
2022-12-31T00:21:57.360Z,102215.71
2022-12-31T00:24:47.702Z,102217.99
2022-12-31T00:27:37.685Z,102221.83
2022-12-31T00:30:27.813Z,102222.56
2022-12-31T00:33:18.337Z,102220.69
2022-12-31T00:36:12.137Z,102223.17
2022-12-31T00:39:03.965Z,102226.35
2022-12-31T00:41:53.961Z,102230.70
2022-12-31T00:44:43.743Z,102232.80
2022-12-31T00:47:33.835Z,102227.30
2022-12-31T00:50:23.778Z,102225.81
2022-12-31T00:53:14.073Z,102222.73
2022-12-31T00:56:06.439Z,102225.73
2022-12-31T00:58:57.051Z,102223.75
2022-12-31T01:01:47.441Z,102221.00
2022-12-31T01:04:37.706Z,102221.48
2022-12-31T01:07:28.232Z,102221.38
2022-12-31T01:10:38.684Z,102225.07
2022-12-31T01:13:29.097Z,102228.90
2022-12-31T01:16:20.868Z,102226.23
2022-12-31T01:19:13.545Z,102224.29
2022-12-31T01:22:03.645Z,102226.46
2022-12-31T01:24:53.460Z,102230.48
2022-12-31T01:27:43.789Z,102238.20
2022-12-31T01:30:34.009Z,102237.69
2022-12-31T01:33:24.459Z,102240.15
2022-12-31T01:36:25.357Z,102242.65
2022-12-31T01:39:17.295Z,102252.45
2022-12-31T01:42:07.916Z,102253.30
2022-12-31T01:44:58.766Z,102254.33
2022-12-31T01:47:52.605Z,102258.19
2022-12-31T01:50:44.812Z,102260.67
2022-12-31T01:53:40.718Z,102261.45
2022-12-31T01:56:32.493Z,102264.11
2022-12-31T01:59:26.281Z,102273.73
2022-12-31T02:02:18.698Z,102280.05
2022-12-31T02:05:19.821Z,102286.53
2022-12-31T02:08:11.687Z,102290.70
2022-12-31T02:11:01.934Z,102293.10
2022-12-31T02:13:58.150Z,102287.60
2022-12-31T02:16:59.166Z,102282.85
2022-12-31T02:20:31.379Z,102279.72
2022-12-31T02:23:38.025Z,102275.84
2022-12-31T02:26:46.778Z,102270.89
2022-12-31T02:30:07.483Z,102269.16
2022-12-31T02:33:20.779Z,102266.55
2022-12-31T02:36:19.770Z,102266.42
2022-12-31T02:39:12.480Z,102263.09
2022-12-31T02:42:03.803Z,102269.80
2022-12-31T02:44:54.160Z,102268.46
2022-12-31T02:47:55.562Z,102262.86
2022-12-31T02:50:56.485Z,102260.45
2022-12-31T02:54:06.302Z,102258.73
2022-12-31T02:57:16.562Z,102260.45
2022-12-31T03:00:27.814Z,102261.74
2022-12-31T03:03:18.986Z,102269.83
2022-12-31T03:06:12.989Z,102274.20
2022-12-31T03:09:14.503Z,102270.20
2022-12-31T03:12:23.628Z,102267.61
2022-12-31T03:15:22.009Z,102272.50
2022-12-31T03:18:14.917Z,102272.55
2022-12-31T03:21:21.954Z,102274.09
2022-12-31T03:24:30.054Z,102277.53
2022-12-31T03:27:19.955Z,102277.41
2022-12-31T03:30:13.839Z,102281.80
2022-12-31T03:33:04.813Z,102284.38
2022-12-31T03:35:57.510Z,102287.33
2022-12-31T03:38:52.743Z,102290.69
2022-12-31T03:41:43.701Z,102291.74
2022-12-31T03:44:34.420Z,102294.54
2022-12-31T03:47:29.796Z,102290.27
2022-12-31T03:50:22.162Z,102292.46
2022-12-31T03:53:12.407Z,102287.52
2022-12-31T03:56:03.002Z,102291.40
2022-12-31T03:58:53.223Z,102297.20
2022-12-31T04:01:43.613Z,102299.65
2022-12-31T04:04:34.016Z,102301.41
2022-12-31T04:07:24.641Z,102305.09
2022-12-31T04:10:16.963Z,102308.95
2022-12-31T04:13:07.151Z,102306.05
2022-12-31T04:15:57.529Z,102309.23
2022-12-31T04:18:47.622Z,102310.95
2022-12-31T04:21:37.813Z,102313.02
2022-12-31T04:24:28.200Z,102314.95
2022-12-31T04:27:18.818Z,102323.68
2022-12-31T04:30:11.318Z,102329.83
2022-12-31T04:33:01.126Z,102330.16
2022-12-31T04:35:52.439Z,102330.92
2022-12-31T04:38:42.686Z,102331.23
2022-12-31T04:41:32.672Z,102332.55
2022-12-31T04:44:23.324Z,102337.24
2022-12-31T04:47:15.261Z,102339.48
2022-12-31T04:50:09.628Z,102341.05
2022-12-31T04:53:00.131Z,102351.88
2022-12-31T04:55:50.423Z,102353.91
2022-12-31T04:58:41.293Z,102355.26
2022-12-31T05:01:31.372Z,102355.42
2022-12-31T05:04:21.401Z,102356.75
2022-12-31T05:07:12.108Z,102358.33
2022-12-31T05:10:01.982Z,102358.89
2022-12-31T05:12:52.381Z,102366.58
2022-12-31T05:15:43.082Z,102365.00
2022-12-31T05:18:34.389Z,102360.60
2022-12-31T05:21:25.260Z,102358.48
2022-12-31T05:24:15.787Z,102360.31
2022-12-31T05:27:05.937Z,102361.23
2022-12-31T05:29:55.619Z,102369.29
2022-12-31T05:32:46.230Z,102378.56
2022-12-31T05:35:36.880Z,102376.31
2022-12-31T05:38:27.226Z,102386.55
2022-12-31T05:41:17.957Z,102391.92
2022-12-31T05:44:08.309Z,102397.14
2022-12-31T05:46:58.828Z,102404.70
2022-12-31T05:49:49.900Z,102408.60
2022-12-31T05:52:47.183Z,102406.21
2022-12-31T05:55:38.150Z,102408.75
2022-12-31T05:58:28.971Z,102411.88
2022-12-31T06:01:19.213Z,102408.42
2022-12-31T06:04:10.268Z,102407.40
2022-12-31T06:07:00.218Z,102414.07
2022-12-31T06:09:50.837Z,102418.59
2022-12-31T06:12:41.636Z,102422.61
2022-12-31T06:15:31.669Z,102420.99
2022-12-31T06:18:23.169Z,102425.04
2022-12-31T06:21:13.822Z,102433.11
2022-12-31T06:24:03.924Z,102442.69
2022-12-31T06:26:54.733Z,102444.19
2022-12-31T06:29:48.464Z,102447.69
2022-12-31T06:32:39.642Z,102445.46
2022-12-31T06:35:30.113Z,102445.90
2022-12-31T06:38:21.305Z,102452.50
2022-12-31T06:41:13.165Z,102457.13
2022-12-31T06:44:03.430Z,102457.89
2022-12-31T06:46:54.015Z,102460.39
2022-12-31T06:49:44.322Z,102455.51
2022-12-31T06:52:34.723Z,102457.97
2022-12-31T06:55:26.374Z,102457.79
2022-12-31T06:58:17.382Z,102459.13
2022-12-31T07:01:27.037Z,102461.40
2022-12-31T07:04:45.138Z,102465.39
2022-12-31T07:07:44.543Z,102462.86
2022-12-31T07:10:44.263Z,102468.26
2022-12-31T07:14:00.248Z,102471.53
2022-12-31T07:17:02.855Z,102476.59
2022-12-31T07:20:01.329Z,102483.48
2022-12-31T07:22:52.817Z,102486.80
2022-12-31T07:25:49.479Z,102494.74
2022-12-31T07:28:53.501Z,102500.17
2022-12-31T07:31:57.822Z,102495.92
2022-12-31T07:34:53.823Z,102499.37
2022-12-31T07:37:53.203Z,102502.98
2022-12-31T07:40:57.616Z,102508.23
2022-12-31T07:43:57.935Z,102515.27
2022-12-31T07:46:56.865Z,102526.51
2022-12-31T07:49:48.249Z,102532.60
2022-12-31T07:52:40.265Z,102533.25
2022-12-31T07:55:31.586Z,102539.56
2022-12-31T07:58:27.405Z,102545.46
2022-12-31T08:01:28.858Z,102550.08
2022-12-31T08:04:27.926Z,102552.45
2022-12-31T08:07:24.105Z,102551.73
2022-12-31T08:10:22.308Z,102552.71
2022-12-31T08:13:15.318Z,102553.11
2022-12-31T08:16:06.336Z,102557.45
2022-12-31T08:18:57.706Z,102564.34
2022-12-31T08:21:56.506Z,102567.85
2022-12-31T08:25:00.313Z,102565.64
2022-12-31T08:27:59.216Z,102561.63
2022-12-31T08:30:59.463Z,102567.56
2022-12-31T08:33:56.786Z,102572.22
2022-12-31T08:36:57.606Z,102581.01
2022-12-31T08:40:06.243Z,102589.05
2022-12-31T08:43:11.184Z,102595.70
2022-12-31T08:46:03.927Z,102605.22
2022-12-31T08:48:54.350Z,102606.49
2022-12-31T08:51:45.506Z,102600.09
2022-12-31T08:54:36.837Z,102602.64
2022-12-31T08:57:35.343Z,102607.09
2022-12-31T09:00:27.887Z,102606.80
2022-12-31T09:03:30.294Z,102609.19
2022-12-31T09:06:28.450Z,102613.46
2022-12-31T09:09:30.193Z,102616.75
2022-12-31T09:12:29.959Z,102615.01
2022-12-31T09:15:27.667Z,102617.48
2022-12-31T09:18:18.660Z,102621.68
2022-12-31T09:21:10.658Z,102618.92
2022-12-31T09:24:08.950Z,102621.46
2022-12-31T09:27:11.068Z,102627.70
2022-12-31T09:30:07.202Z,102636.44
2022-12-31T09:33:04.048Z,102638.75
2022-12-31T09:35:58.331Z,102643.16
2022-12-31T09:38:57.541Z,102646.43
2022-12-31T09:42:14.337Z,102650.52
2022-12-31T09:45:27.309Z,102656.49
2022-12-31T09:48:48.517Z,102652.81
2022-12-31T09:51:47.455Z,102649.67
2022-12-31T09:55:01.874Z,102650.81
2022-12-31T09:58:03.467Z,102651.31
2022-12-31T10:00:59.615Z,102650.66
2022-12-31T10:04:24.322Z,102650.91
2022-12-31T10:07:32.039Z,102649.48
2022-12-31T10:10:30.872Z,102649.89
2022-12-31T10:13:37.626Z,102650.27
2022-12-31T10:16:53.222Z,102646.86
2022-12-31T10:20:05.920Z,102642.42
2022-12-31T10:23:21.972Z,102640.86
2022-12-31T10:26:29.340Z,102639.40
2022-12-31T10:29:35.749Z,102639.85
2022-12-31T10:32:38.518Z,102645.88
2022-12-31T10:35:41.246Z,102645.95
2022-12-31T10:38:40.571Z,102641.91
2022-12-31T10:42:03.207Z,102635.04
2022-12-31T10:45:13.378Z,102635.55
2022-12-31T10:48:29.412Z,102639.67
2022-12-31T10:51:58.219Z,102643.05
2022-12-31T10:55:18.759Z,102644.30
2022-12-31T10:58:32.864Z,102641.36
2022-12-31T11:01:34.191Z,102637.24
2022-12-31T11:04:58.368Z,102635.81
2022-12-31T11:08:14.865Z,102637.83
2022-12-31T11:11:19.920Z,102633.20
2022-12-31T11:14:38.589Z,102629.05
2022-12-31T11:17:38.876Z,102627.77
2022-12-31T11:20:42.775Z,102627.20
2022-12-31T11:23:44.353Z,102624.51
2022-12-31T11:26:46.066Z,102625.73
2022-12-31T11:29:49.808Z,102623.27
2022-12-31T11:32:54.993Z,102619.07
2022-12-31T11:36:01.807Z,102615.17
2022-12-31T11:39:01.804Z,102617.66
2022-12-31T11:41:54.085Z,102622.23
2022-12-31T11:44:51.595Z,102617.55
2022-12-31T11:48:28.522Z,102612.46
2022-12-31T11:51:17.823Z,102610.65
2022-12-31T11:54:40.215Z,102604.42
2022-12-31T11:57:36.808Z,102611.46
2022-12-31T12:00:29.069Z,102613.61
2022-12-31T12:03:19.183Z,102609.48
2022-12-31T12:06:13.409Z,102613.15
2022-12-31T12:09:08.148Z,102609.79
2022-12-31T12:12:03.932Z,102610.30
2022-12-31T12:14:55.873Z,102607.29
2022-12-31T12:17:51.210Z,102599.06
2022-12-31T12:20:45.468Z,102588.48
2022-12-31T12:23:35.560Z,102590.75
2022-12-31T12:26:37.578Z,102588.71
2022-12-31T12:29:34.404Z,102596.62
2022-12-31T12:32:27.310Z,102596.12
2022-12-31T12:35:24.788Z,102592.55
2022-12-31T12:38:20.527Z,102591.83
2022-12-31T12:41:14.596Z,102588.02
2022-12-31T12:44:10.264Z,102589.08
2022-12-31T12:47:03.477Z,102589.20
2022-12-31T12:49:56.803Z,102587.42
2022-12-31T12:53:09.445Z,102588.42
2022-12-31T12:56:10.242Z,102584.52
2022-12-31T12:59:20.766Z,102581.44
2022-12-31T13:02:33.067Z,102578.52
2022-12-31T13:05:36.777Z,102581.59
2022-12-31T13:08:37.719Z,102577.81
2022-12-31T13:11:41.646Z,102574.61
2022-12-31T13:14:38.951Z,102566.61
2022-12-31T13:17:49.780Z,102561.11
2022-12-31T13:20:51.456Z,102562.72
2022-12-31T13:23:49.436Z,102559.89
2022-12-31T13:26:46.207Z,102558.48
2022-12-31T13:29:38.742Z,102553.95
2022-12-31T13:32:37.932Z,102550.65
2022-12-31T13:35:31.179Z,102552.59
2022-12-31T13:38:26.883Z,102552.58
2022-12-31T13:41:22.896Z,102557.66
2022-12-31T13:44:19.323Z,102557.89
2022-12-31T13:47:15.755Z,102560.95
2022-12-31T13:50:16.006Z,102565.75
2022-12-31T13:53:15.390Z,102569.16
2022-12-31T13:56:11.157Z,102568.38
2022-12-31T13:59:06.656Z,102566.94
2022-12-31T14:02:04.655Z,102569.54
2022-12-31T14:04:59.186Z,102563.70
2022-12-31T14:07:53.148Z,102568.11
2022-12-31T14:10:58.620Z,102576.13
2022-12-31T14:14:04.464Z,102574.73
2022-12-31T14:17:00.493Z,102579.14
2022-12-31T14:20:00.124Z,102584.23
2022-12-31T14:22:57.826Z,102588.89
2022-12-31T14:25:54.238Z,102586.82
2022-12-31T14:28:49.281Z,102587.56
2022-12-31T14:32:00.810Z,102590.70
2022-12-31T14:34:59.699Z,102593.52
2022-12-31T14:37:58.165Z,102596.50
2022-12-31T14:41:02.695Z,102595.08
2022-12-31T14:44:04.826Z,102598.75
2022-12-31T14:47:07.919Z,102603.12
2022-12-31T14:50:05.964Z,102604.79
2022-12-31T14:53:07.699Z,102609.27
2022-12-31T14:56:02.888Z,102607.63
2022-12-31T14:59:00.292Z,102610.03
2022-12-31T15:01:50.661Z,102608.69
2022-12-31T15:04:47.454Z,102605.04
2022-12-31T15:07:49.346Z,102607.84
2022-12-31T15:10:49.337Z,102612.55
2022-12-31T15:13:56.093Z,102614.61
2022-12-31T15:16:56.054Z,102613.50
2022-12-31T15:20:18.958Z,102613.61
2022-12-31T15:23:21.257Z,102616.77
2022-12-31T15:26:24.399Z,102614.35
2022-12-31T15:29:31.179Z,102619.27
2022-12-31T15:32:26.380Z,102622.16
2022-12-31T15:35:32.007Z,102619.58
2022-12-31T15:38:42.967Z,102620.81
2022-12-31T15:42:03.018Z,102621.09
2022-12-31T15:44:58.052Z,102624.30
2022-12-31T15:47:51.351Z,102628.98
2022-12-31T15:50:43.514Z,102630.27
2022-12-31T15:53:40.407Z,102637.57
2022-12-31T15:56:39.824Z,102637.02
2022-12-31T15:59:31.037Z,102640.14
2022-12-31T16:02:25.862Z,102642.65
2022-12-31T16:05:25.617Z,102651.62
2022-12-31T16:08:22.913Z,102651.07
2022-12-31T16:11:14.264Z,102651.87
2022-12-31T16:14:05.059Z,102655.47
2022-12-31T16:16:58.288Z,102659.14
2022-12-31T16:19:48.982Z,102659.98
2022-12-31T16:22:41.089Z,102662.96
2022-12-31T16:25:33.934Z,102668.57
2022-12-31T16:28:34.133Z,102667.48
2022-12-31T16:31:24.728Z,102671.50
2022-12-31T16:34:17.929Z,102675.31
2022-12-31T16:37:16.017Z,102679.54
2022-12-31T16:40:24.900Z,102678.08
2022-12-31T16:43:30.388Z,102681.41
2022-12-31T16:46:26.406Z,102684.73
2022-12-31T16:49:22.452Z,102687.38
2022-12-31T16:52:31.964Z,102693.55
2022-12-31T16:55:25.243Z,102698.17
2022-12-31T16:58:24.113Z,102704.15
2022-12-31T17:01:19.036Z,102707.33
2022-12-31T17:04:13.604Z,102708.36
2022-12-31T17:07:30.628Z,102710.27
2022-12-31T17:10:25.067Z,102709.06
2022-12-31T17:13:29.582Z,102711.36
2022-12-31T17:16:21.570Z,102714.59
2022-12-31T17:19:31.600Z,102714.65
2022-12-31T17:22:35.728Z,102715.77
2022-12-31T17:25:29.775Z,102709.53
2022-12-31T17:28:25.922Z,102705.86
2022-12-31T17:31:35.332Z,102712.40
2022-12-31T17:34:30.796Z,102720.00
2022-12-31T17:37:24.864Z,102720.16
2022-12-31T17:40:50.935Z,102720.00
2022-12-31T17:43:42.883Z,102717.42
2022-12-31T17:46:34.979Z,102722.44
2022-12-31T17:49:32.063Z,102725.47
2022-12-31T17:52:22.460Z,102727.37
2022-12-31T17:55:12.742Z,102725.60
2022-12-31T17:58:06.868Z,102721.68
2022-12-31T18:00:58.348Z,102728.23
2022-12-31T18:03:49.107Z,102728.16
2022-12-31T18:06:38.984Z,102735.17
2022-12-31T18:09:29.049Z,102734.95
2022-12-31T18:12:26.446Z,102733.02
2022-12-31T18:15:23.585Z,102740.13
2022-12-31T18:18:25.352Z,102742.67
2022-12-31T18:21:23.648Z,102747.55
2022-12-31T18:24:24.267Z,102752.14
2022-12-31T18:27:20.527Z,102753.20
2022-12-31T18:30:13.579Z,102757.27
2022-12-31T18:33:06.453Z,102759.20
2022-12-31T18:36:08.640Z,102761.23
2022-12-31T18:39:00.161Z,102761.48
2022-12-31T18:41:50.787Z,102758.45
2022-12-31T18:44:41.709Z,102759.67
2022-12-31T18:47:37.438Z,102762.88
2022-12-31T18:50:28.593Z,102767.09
2022-12-31T18:53:21.143Z,102772.10
2022-12-31T18:56:15.283Z,102770.39
2022-12-31T18:59:05.442Z,102771.52
2022-12-31T19:01:55.189Z,102776.23
2022-12-31T19:04:45.270Z,102782.11
2022-12-31T19:07:35.794Z,102786.77
2022-12-31T19:10:26.401Z,102791.27
2022-12-31T19:13:18.003Z,102790.61
2022-12-31T19:16:09.063Z,102791.38
2022-12-31T19:19:01.562Z,102792.06
2022-12-31T19:21:55.548Z,102789.29
2022-12-31T19:24:45.634Z,102788.73
2022-12-31T19:27:35.418Z,102791.54
2022-12-31T19:30:27.349Z,102792.06
2022-12-31T19:33:18.179Z,102787.67
2022-12-31T19:36:15.535Z,102789.77
2022-12-31T19:39:08.108Z,102790.95
2022-12-31T19:41:59.437Z,102789.30
2022-12-31T19:44:50.203Z,102788.05
2022-12-31T19:47:40.480Z,102792.59
2022-12-31T19:50:31.545Z,102791.51
2022-12-31T19:53:24.233Z,102788.81
2022-12-31T19:56:16.907Z,102793.31
2022-12-31T19:59:09.181Z,102799.23
2022-12-31T20:01:59.299Z,102796.44
2022-12-31T20:04:49.837Z,102799.67
2022-12-31T20:07:40.288Z,102799.03
2022-12-31T20:10:30.745Z,102799.00
2022-12-31T20:13:21.629Z,102795.53
2022-12-31T20:16:14.441Z,102789.39
2022-12-31T20:19:06.352Z,102788.75
2022-12-31T20:21:56.488Z,102783.20
2022-12-31T20:24:47.258Z,102778.46
2022-12-31T20:27:40.032Z,102773.55
2022-12-31T20:30:31.126Z,102774.84
2022-12-31T20:33:21.860Z,102779.44
2022-12-31T20:36:14.818Z,102779.85
2022-12-31T20:39:05.988Z,102776.15
2022-12-31T20:41:56.278Z,102778.89
2022-12-31T20:44:46.238Z,102777.67
2022-12-31T20:47:36.589Z,102774.33
2022-12-31T20:50:28.084Z,102772.55
2022-12-31T20:53:18.184Z,102770.98
2022-12-31T20:56:09.674Z,102771.02
2022-12-31T20:59:00.206Z,102776.80
2022-12-31T21:02:20.093Z,102778.17
2022-12-31T21:05:00.280Z,102775.91
2022-12-31T21:07:50.618Z,102777.09
2022-12-31T21:10:40.613Z,102776.81
2022-12-31T21:13:31.609Z,102777.82
2022-12-31T21:16:22.103Z,102782.41
2022-12-31T21:19:12.910Z,102785.83
2022-12-31T21:22:02.593Z,102791.29
2022-12-31T21:24:52.980Z,102796.47
2022-12-31T21:27:43.171Z,102798.48
2022-12-31T21:30:33.501Z,102798.02
2022-12-31T21:33:23.551Z,102795.08
2022-12-31T21:36:14.161Z,102796.49
2022-12-31T21:39:04.892Z,102791.61
2022-12-31T21:41:55.399Z,102793.61
2022-12-31T21:44:45.548Z,102792.25
2022-12-31T21:47:53.482Z,102793.07
2022-12-31T21:50:46.194Z,102795.66
2022-12-31T21:53:37.816Z,102796.71
2022-12-31T21:56:28.956Z,102796.86
2022-12-31T21:59:39.037Z,102795.60
2022-12-31T22:02:59.134Z,102793.86
2022-12-31T22:05:52.951Z,102796.06
2022-12-31T22:08:46.814Z,102794.41
2022-12-31T22:11:36.833Z,102799.75
2022-12-31T22:14:27.338Z,102800.41
2022-12-31T22:17:17.293Z,102797.54
2022-12-31T22:20:26.613Z,102795.70
2022-12-31T22:23:17.621Z,102801.39
2022-12-31T22:26:09.412Z,102800.45
2022-12-31T22:29:00.314Z,102798.10
2022-12-31T22:31:50.457Z,102804.27
2022-12-31T22:34:41.802Z,102807.38
2022-12-31T22:37:57.084Z,102808.63
2022-12-31T22:40:42.229Z,102808.71
2022-12-31T22:43:33.698Z,102814.42
2022-12-31T22:46:25.784Z,102816.05
2022-12-31T22:49:17.231Z,102811.29
2022-12-31T22:52:08.946Z,102806.85
2022-12-31T22:54:59.305Z,102805.30
2022-12-31T22:57:49.603Z,102808.46
2022-12-31T23:00:43.069Z,102804.09
2022-12-31T23:03:33.192Z,102802.02
2022-12-31T23:06:24.886Z,102798.29
2022-12-31T23:09:34.343Z,102797.41
2022-12-31T23:12:24.953Z,102797.65
2022-12-31T23:15:32.418Z,102796.98
2022-12-31T23:18:39.916Z,102796.13
2022-12-31T23:21:47.553Z,102792.27
2022-12-31T23:24:37.959Z,102789.86
2022-12-31T23:27:28.094Z,102789.52
2022-12-31T23:30:18.547Z,102788.14
2022-12-31T23:33:09.092Z,102787.49
2022-12-31T23:36:07.237Z,102782.70
2022-12-31T23:38:58.359Z,102783.12
2022-12-31T23:41:48.612Z,102786.29
2022-12-31T23:44:39.123Z,102791.60
2022-12-31T23:47:29.039Z,102791.49
2022-12-31T23:50:19.150Z,102798.02
2022-12-31T23:53:09.962Z,102795.09
2022-12-31T23:56:14.893Z,102792.83
2022-12-31T23:59:08.046Z,102785.42
